Time;durP1;ratioP1;P1;durP2;ratioP2;P2;SDS_P1;SDS_P2;PMS_P1;PMS_P2;Temp;Humidity;BMP_temperature;BMP_pressure;BME280_temperature;BME280_humidity;BME280_pressure;Samples;Min_cycle;Max_cycle;Signal;HPM_P1;HPM_P2
2022/04/24 00:00:04;;;;;;;5.78;2.10;;;17.30;75.70;;;;;;5033092;28;20029;-71
2022/04/24 00:02:29;;;;;;;8.02;2.30;;;17.30;75.70;;;;;;5033042;28;20422;-71
2022/04/24 00:04:55;;;;;;;6.57;1.90;;;17.20;76.30;;;;;;5032783;28;20105;-72
2022/04/24 00:07:22;;;;;;;6.70;1.90;;;17.20;76.50;;;;;;5032979;28;20126;-70
2022/04/24 00:09:47;;;;;;;5.72;2.00;;;17.20;76.90;;;;;;5033076;28;20028;-70
2022/04/24 00:12:15;;;;;;;4.40;1.80;;;17.20;77.10;;;;;;5033179;28;20018;-70
2022/04/24 00:14:43;;;;;;;6.60;2.10;;;17.20;77.40;;;;;;5032634;28;20037;-70
2022/04/24 00:17:09;;;;;;;6.63;2.03;;;17.20;77.30;;;;;;5033054;28;20417;-71
2022/04/24 00:19:34;;;;;;;5.18;1.88;;;17.20;77.70;;;;;;5033157;28;20087;-73
2022/04/24 00:22:00;;;;;;;7.03;1.90;;;17.10;77.90;;;;;;5034139;28;20108;-70
2022/04/24 00:24:26;;;;;;;7.25;1.67;;;17.20;78.00;;;;;;5034180;28;20026;-69
2022/04/24 00:26:52;;;;;;;7.45;1.92;;;17.20;78.10;;;;;;5034572;28;20084;-70
2022/04/24 00:29:18;;;;;;;7.80;2.53;;;17.20;78.40;;;;;;5033043;28;20053;-71
2022/04/24 00:31:44;;;;;;;5.70;1.60;;;17.20;78.30;;;;;;5033080;28;20089;-69
2022/04/24 00:34:09;;;;;;;8.07;1.88;;;17.10;78.50;;;;;;5032612;28;20033;-70
2022/04/24 00:36:35;;;;;;;6.93;1.98;;;17.10;78.70;;;;;;5035564;28;20021;-71
2022/04/24 00:39:00;;;;;;;6.05;1.73;;;17.10;78.80;;;;;;5036695;28;20085;-70
2022/04/24 00:41:26;;;;;;;3.92;1.48;;;17.10;79.00;;;;;;5036810;28;20026;-70
2022/04/24 00:43:53;;;;;;;7.00;2.15;;;17.10;79.10;;;;;;5036431;28;20030;-70
2022/04/24 00:46:39;;;;;;;9.07;2.28;;;17.10;79.20;;;;;;5018948;28;20057;-71
2022/04/24 00:49:05;;;;;;;6.80;2.00;;;17.10;79.60;;;;;;5036389;28;20201;-71
2022/04/24 00:51:31;;;;;;;7.00;1.98;;;17.10;79.70;;;;;;5036647;28;20437;-73
2022/04/24 00:53:56;;;;;;;6.80;1.90;;;17.10;79.70;;;;;;5036262;28;20045;-70
2022/04/24 00:56:30;;;;;;;6.35;1.80;;;17.10;80.00;;;;;;5036310;28;20378;-70
2022/04/24 00:58:56;;;;;;;7.80;2.22;;;17.00;79.80;;;;;;5036477;28;20159;-71
2022/04/24 01:01:22;;;;;;;6.80;1.70;;;17.10;79.90;;;;;;5036529;28;20376;-70
2022/04/24 01:03:48;;;;;;;5.90;1.83;;;17.00;79.90;;;;;;5036104;28;20029;-69
2022/04/24 01:06:14;;;;;;;8.30;2.00;;;17.10;80.20;;;;;;5036281;28;20523;-71
2022/04/24 01:08:40;;;;;;;6.03;2.03;;;17.10;80.20;;;;;;5036264;28;20025;-72
2022/04/24 01:11:05;;;;;;;4.78;1.65;;;17.00;80.10;;;;;;5036132;28;20143;-71
2022/04/24 01:13:31;;;;;;;5.35;1.90;;;17.10;80.40;;;;;;5035949;28;20116;-72
2022/04/24 01:15:57;;;;;;;6.20;1.98;;;17.10;80.40;;;;;;5035702;28;20049;-71
2022/04/24 01:18:25;;;;;;;6.68;1.75;;;17.10;80.30;;;;;;5035951;28;20017;-71
2022/04/24 01:20:51;;;;;;;6.00;1.52;;;17.10;80.20;;;;;;5036064;28;20474;-69
2022/04/24 01:23:16;;;;;;;7.03;2.00;;;17.10;80.30;;;;;;5035883;28;20033;-70
2022/04/24 01:25:42;;;;;;;8.30;2.00;;;17.10;80.00;;;;;;5035747;28;20029;-70
2022/04/24 01:28:09;;;;;;;7.93;1.80;;;17.20;80.10;;;;;;5035811;28;20036;-71
2022/04/24 01:30:35;;;;;;;7.22;1.98;;;17.10;80.50;;;;;;5035601;28;20402;-71
2022/04/24 01:33:03;;;;;;;6.22;1.83;;;17.20;80.90;;;;;;5035553;28;20026;-70
2022/04/24 01:35:32;;;;;;;6.90;1.65;;;17.10;80.70;;;;;;5018162;28;20053;-70
2022/04/24 01:37:58;;;;;;;3.90;1.48;;;17.20;81.40;;;;;;5035445;28;20035;-71
2022/04/24 01:40:25;;;;;;;5.35;1.60;;;17.20;81.70;;;;;;5035741;28;20033;-70
2022/04/24 01:42:51;;;;;;;9.38;2.08;;;17.20;82.60;;;;;;5035681;28;20398;-70
2022/04/24 01:45:16;;;;;;;9.65;2.10;;;17.10;83.40;;;;;;5035331;28;20017;-69
2022/04/24 01:47:42;;;;;;;10.30;2.13;;;17.10;84.70;;;;;;5034719;28;20044;-70
2022/04/24 01:50:08;;;;;;;5.97;1.90;;;17.20;86.10;;;;;;5035565;28;20022;-71
2022/04/24 01:52:33;;;;;;;5.18;1.92;;;17.10;87.20;;;;;;5035504;28;20475;-70
2022/04/24 01:54:59;;;;;;;31.58;2.55;;;17.00;88.30;;;;;;5035078;28;20533;-70
2022/04/24 01:57:25;;;;;;;11.15;2.30;;;17.00;89.50;;;;;;5035100;28;20159;-70
2022/04/24 01:59:50;;;;;;;9.35;2.55;;;17.00;90.10;;;;;;5035080;28;20032;-71
2022/04/24 02:02:16;;;;;;;11.15;2.40;;;17.00;90.80;;;;;;5035287;28;20029;-70
2022/04/24 02:04:42;;;;;;;6.85;2.13;;;17.00;91.00;;;;;;5035099;28;20034;-71
2022/04/24 02:07:07;;;;;;;8.55;2.30;;;16.90;91.50;;;;;;5035209;28;20026;-71
2022/04/24 02:09:34;;;;;;;6.53;2.05;;;16.90;91.70;;;;;;5035170;28;20036;-71
2022/04/24 02:12:00;;;;;;;5.55;2.05;;;16.80;92.10;;;;;;5034793;28;20033;-70
2022/04/24 02:14:26;;;;;;;8.43;2.30;;;16.80;92.60;;;;;;5034603;28;20046;-70
2022/04/24 02:16:51;;;;;;;9.15;2.38;;;16.70;92.60;;;;;;5035228;28;20029;-70
2022/04/24 02:19:17;;;;;;;8.85;2.33;;;16.70;93.00;;;;;;5034856;28;20044;-71
2022/04/24 02:21:43;;;;;;;7.47;2.13;;;16.70;93.10;;;;;;5035238;28;20044;-72
2022/04/24 02:24:08;;;;;;;5.93;2.03;;;16.70;93.40;;;;;;5036280;28;20030;-70
2022/04/24 02:26:34;;;;;;;7.93;2.50;;;16.70;93.40;;;;;;5037372;28;20022;-71
2022/04/24 02:29:00;;;;;;;11.93;2.72;;;16.70;93.50;;;;;;5034713;28;20033;-69
2022/04/24 02:31:26;;;;;;;8.48;2.08;;;16.70;93.90;;;;;;5034909;28;20021;-70
2022/04/24 02:33:52;;;;;;;10.10;1.98;;;16.70;94.00;;;;;;5034351;28;20068;-72
2022/04/24 02:36:18;;;;;;;5.82;2.03;;;16.60;94.30;;;;;;5034860;28;20064;-70
2022/04/24 02:38:44;;;;;;;11.57;2.50;;;16.60;94.70;;;;;;5034497;28;20029;-70
2022/04/24 02:41:09;;;;;;;7.07;2.45;;;16.50;94.80;;;;;;5034669;28;20021;-70
2022/04/24 02:43:35;;;;;;;9.20;2.42;;;16.50;95.10;;;;;;5034272;28;20025;-70
2022/04/24 02:46:01;;;;;;;13.27;2.45;;;16.40;95.50;;;;;;5034494;28;20490;-71
2022/04/24 02:48:27;;;;;;;7.38;2.22;;;16.40;95.70;;;;;;5034343;28;20026;-71
2022/04/24 02:50:54;;;;;;;11.13;2.45;;;16.40;95.80;;;;;;5034196;28;20025;-71
2022/04/24 02:53:20;;;;;;;8.82;2.42;;;16.40;96.00;;;;;;5034223;28;20116;-72
2022/04/24 02:55:46;;;;;;;11.15;2.83;;;16.40;96.30;;;;;;5034178;28;20097;-70
2022/04/24 02:58:11;;;;;;;13.55;3.67;;;16.30;96.90;;;;;;5016282;28;20033;-72
2022/04/24 03:00:42;;;;;;;10.35;2.50;;;16.30;97.40;;;;;;5033390;28;20021;-71
2022/04/24 03:03:09;;;;;;;6.97;2.10;;;16.20;97.40;;;;;;5034111;28;20075;-70
2022/04/24 03:05:35;;;;;;;10.00;2.17;;;16.20;97.50;;;;;;5033861;28;20394;-74
2022/04/24 03:08:01;;;;;;;13.55;2.40;;;16.20;97.40;;;;;;5016327;28;20025;-70
2022/04/24 03:10:28;;;;;;;11.23;2.60;;;16.20;97.10;;;;;;5033973;28;20044;-70
2022/04/24 03:12:54;;;;;;;9.48;2.55;;;16.20;96.80;;;;;;5033828;28;20026;-72
2022/04/24 03:15:20;;;;;;;7.45;2.47;;;16.30;96.30;;;;;;5033656;28;20107;-70
2022/04/24 03:17:46;;;;;;;9.68;2.60;;;16.30;96.10;;;;;;5032536;28;20356;-70
2022/04/24 03:20:13;;;;;;;14.93;3.35;;;16.30;95.70;;;;;;5033893;28;20021;-71
2022/04/24 03:22:40;;;;;;;16.10;2.53;;;16.30;95.30;;;;;;5033996;28;20379;-70
2022/04/24 03:25:08;;;;;;;13.38;2.38;;;16.30;95.00;;;;;;5033498;28;20029;-70
2022/04/24 03:27:33;;;;;;;8.05;2.00;;;16.40;94.70;;;;;;5033732;28;20057;-71
2022/04/24 03:29:59;;;;;;;13.90;2.55;;;16.40;94.40;;;;;;5015835;28;20459;-69
2022/04/24 03:32:29;;;;;;;14.18;2.90;;;16.40;94.00;;;;;;4999460;28;20556;-70
2022/04/24 03:34:54;;;;;;;11.80;2.35;;;16.40;93.90;;;;;;5016326;28;20041;-71
2022/04/24 03:37:20;;;;;;;15.18;2.85;;;16.40;93.70;;;;;;5034458;28;20021;-69
2022/04/24 03:39:46;;;;;;;16.70;2.53;;;16.40;93.60;;;;;;5034882;28;20033;-69
2022/04/24 03:42:12;;;;;;;11.50;2.50;;;16.40;93.60;;;;;;5033698;28;20097;-70
2022/04/24 03:44:37;;;;;;;12.32;2.85;;;16.30;93.90;;;;;;5033266;28;20068;-71
2022/04/24 03:47:03;;;;;;;17.48;3.30;;;16.30;93.90;;;;;;5033626;28;20060;-70
2022/04/24 03:49:29;;;;;;;14.07;3.38;;;16.30;94.00;;;;;;5033366;28;20021;-70
2022/04/24 03:51:55;;;;;;;13.07;2.67;;;16.20;94.10;;;;;;5033210;28;20052;-69
2022/04/24 03:54:21;;;;;;;15.68;2.95;;;16.20;94.30;;;;;;5033085;28;20044;-71
2022/04/24 03:56:46;;;;;;;14.40;3.20;;;16.30;94.40;;;;;;5033115;28;20029;-70
2022/04/24 03:59:12;;;;;;;12.57;2.55;;;16.20;94.50;;;;;;5033093;28;20375;-70
2022/04/24 04:01:39;;;;;;;15.38;2.92;;;16.20;94.60;;;;;;5033383;28;20434;-70
2022/04/24 04:04:04;;;;;;;18.38;3.03;;;16.20;94.70;;;;;;5032963;28;20028;-70
2022/04/24 04:06:30;;;;;;;12.98;2.63;;;16.20;94.70;;;;;;5015620;28;20029;-70
2022/04/24 04:08:56;;;;;;;13.25;2.40;;;16.20;95.00;;;;;;5032981;28;20087;-70
2022/04/24 04:11:22;;;;;;;15.38;2.55;;;16.20;95.00;;;;;;5035485;28;20472;-70
2022/04/24 04:13:48;;;;;;;7.10;2.38;;;16.10;95.00;;;;;;5036875;28;20390;-69
2022/04/24 04:16:13;;;;;;;12.88;2.65;;;16.10;95.20;;;;;;5037009;28;20494;-70
2022/04/24 04:18:39;;;;;;;10.05;2.63;;;16.10;95.80;;;;;;5037025;28;20025;-69
2022/04/24 04:21:05;;;;;;;15.38;3.00;;;16.10;95.80;;;;;;5037234;28;20029;-70
2022/04/24 04:23:30;;;;;;;8.10;2.70;;;16.10;96.00;;;;;;5036941;28;20033;-71
2022/04/24 04:25:56;;;;;;;11.13;3.13;;;16.10;96.10;;;;;;5036948;28;20105;-70
2022/04/24 04:28:22;;;;;;;17.05;2.97;;;16.00;96.30;;;;;;5036820;28;20092;-72
2022/04/24 04:30:48;;;;;;;16.15;3.30;;;16.00;96.60;;;;;;5036880;28;20025;-70
2022/04/24 04:33:14;;;;;;;15.70;2.80;;;15.90;97.00;;;;;;5036633;28;20029;-70
2022/04/24 04:35:40;;;;;;;11.18;3.00;;;15.90;97.00;;;;;;5019133;28;20033;-70
2022/04/24 04:38:05;;;;;;;12.88;2.83;;;15.90;97.10;;;;;;5035612;28;20025;-71
2022/04/24 04:40:31;;;;;;;12.35;3.15;;;15.90;97.20;;;;;;5036673;28;20025;-71
2022/04/24 04:42:57;;;;;;;12.25;3.00;;;15.90;97.40;;;;;;5036761;28;20025;-69
2022/04/24 04:45:24;;;;;;;13.60;3.00;;;15.90;97.60;;;;;;5036728;28;20459;-71
2022/04/24 04:47:51;;;;;;;13.80;3.78;;;15.90;97.70;;;;;;5036594;28;20056;-70
2022/04/24 04:50:18;;;;;;;9.77;3.42;;;15.90;97.80;;;;;;5036716;28;20025;-73
2022/04/24 04:52:44;;;;;;;16.00;3.55;;;16.00;98.10;;;;;;5036479;28;20079;-70
2022/04/24 04:55:10;;;;;;;11.32;3.55;;;16.00;98.00;;;;;;5036233;28;20064;-70
2022/04/24 04:57:36;;;;;;;14.80;4.05;;;16.00;97.90;;;;;;5036714;28;20061;-71
2022/04/24 05:00:07;;;;;;;14.43;2.90;;;16.00;98.10;;;;;;5036702;28;20469;-71
2022/04/24 05:02:39;;;;;;;13.85;3.30;;;16.00;98.10;;;;;;5036616;28;20033;-70
2022/04/24 05:05:07;;;;;;;11.68;3.10;;;16.00;98.20;;;;;;5037606;28;20025;-74
2022/04/24 05:07:33;;;;;;;11.48;3.20;;;16.10;98.30;;;;;;5038670;28;20018;-73
2022/04/24 05:09:58;;;;;;;14.05;3.17;;;16.20;98.20;;;;;;5037532;28;20022;-72
2022/04/24 05:12:28;;;;;;;13.70;3.17;;;16.20;98.10;;;;;;5036245;28;20044;-70
2022/04/24 05:15:01;;;;;;;13.85;2.90;;;16.30;97.90;;;;;;5035645;28;20053;-71
2022/04/24 05:17:27;;;;;;;11.80;2.63;;;16.40;97.60;;;;;;5036032;28;20013;-71
2022/04/24 05:19:53;;;;;;;14.20;3.17;;;16.50;97.30;;;;;;5036269;28;20498;-72
2022/04/24 05:22:19;;;;;;;16.38;3.13;;;16.60;97.10;;;;;;5034725;28;20025;-72
2022/04/24 05:24:45;;;;;;;12.05;2.47;;;16.60;97.00;;;;;;5035741;28;20360;-71
2022/04/24 05:27:10;;;;;;;15.85;2.83;;;16.60;97.00;;;;;;5035833;28;20497;-70
2022/04/24 05:29:36;;;;;;;12.07;2.92;;;16.50;97.10;;;;;;5035779;28;20025;-72
2022/04/24 05:32:02;;;;;;;12.40;3.47;;;16.60;97.30;;;;;;5035841;28;20017;-71
2022/04/24 05:34:28;;;;;;;13.77;3.85;;;16.60;97.20;;;;;;5035458;28;20037;-73
2022/04/24 05:36:54;;;;;;;12.30;3.20;;;16.60;97.40;;;;;;5035768;28;20191;-72
2022/04/24 05:39:19;;;;;;;9.60;2.85;;;16.60;97.50;;;;;;5035921;28;20044;-70
2022/04/24 05:41:45;;;;;;;13.05;3.00;;;16.60;97.60;;;;;;5035711;28;20025;-72
2022/04/24 05:44:11;;;;;;;12.20;3.67;;;16.60;97.70;;;;;;5035717;28;20109;-72
2022/04/24 05:46:36;;;;;;;10.73;2.83;;;16.60;97.80;;;;;;5035390;28;20033;-71
2022/04/24 05:49:02;;;;;;;10.02;2.60;;;16.60;97.90;;;;;;5035315;28;20415;-70
2022/04/24 05:51:28;;;;;;;10.70;2.85;;;16.60;98.00;;;;;;5035407;28;20021;-70
2022/04/24 05:53:54;;;;;;;11.02;2.60;;;16.60;98.20;;;;;;5035214;28;20036;-71
2022/04/24 05:56:21;;;;;;;12.38;2.80;;;16.70;98.10;;;;;;5035537;28;20544;-72
2022/04/24 05:58:46;;;;;;;12.20;2.83;;;16.70;98.10;;;;;;5035307;28;20025;-71
2022/04/24 06:01:12;;;;;;;8.93;3.15;;;16.60;98.20;;;;;;5035062;28;20025;-73
2022/04/24 06:03:42;;;;;;;12.98;3.60;;;16.60;98.30;;;;;;5035273;28;20018;-72
2022/04/24 06:06:08;;;;;;;6.78;2.60;;;16.60;98.40;;;;;;5035203;28;20026;-71
2022/04/24 06:08:35;;;;;;;11.68;2.70;;;16.60;98.50;;;;;;5035046;28;20558;-70
2022/04/24 06:11:00;;;;;;;7.40;2.80;;;16.70;98.60;;;;;;5035253;28;20030;-74
2022/04/24 06:13:27;;;;;;;9.18;3.15;;;16.80;98.40;;;;;;5035118;28;20037;-70
2022/04/24 06:15:57;;;;;;;6.35;2.30;;;17.00;98.10;;;;;;5032955;28;20050;-73
2022/04/24 06:18:23;;;;;;;8.77;2.53;;;17.30;97.90;;;;;;5017047;28;20018;-71
2022/04/24 06:20:49;;;;;;;10.10;2.50;;;17.40;97.40;;;;;;5034751;28;20474;-71
2022/04/24 06:23:15;;;;;;;9.73;2.80;;;17.50;97.30;;;;;;5033525;28;20028;-76
2022/04/24 06:25:41;;;;;;;13.15;3.40;;;17.50;97.20;;;;;;5034615;28;20079;-71
2022/04/24 06:28:07;;;;;;;9.35;3.15;;;17.40;97.30;;;;;;5034717;28;20021;-71
2022/04/24 06:30:40;;;;;;;9.38;2.97;;;17.40;97.60;;;;;;5034624;28;20105;-71
2022/04/24 06:33:12;;;;;;;8.93;3.20;;;17.50;97.60;;;;;;5034616;28;20091;-72
2022/04/24 06:35:39;;;;;;;11.35;3.45;;;17.60;97.30;;;;;;5034771;28;20272;-71
2022/04/24 06:38:05;;;;;;;7.97;2.67;;;17.50;97.50;;;;;;5034702;28;20018;-72
2022/04/24 06:40:32;;;;;;;11.98;2.83;;;17.40;97.50;;;;;;5034583;28;20121;-72
2022/04/24 06:43:07;;;;;;;8.80;2.95;;;17.50;97.60;;;;;;5034526;28;20025;-74
2022/04/24 06:45:40;;;;;;;8.60;3.00;;;17.50;97.50;;;;;;5034493;28;20030;-71
2022/04/24 06:48:11;;;;;;;7.53;3.65;;;17.60;97.30;;;;;;5032862;28;20068;-70
2022/04/24 06:50:40;;;;;;;10.65;2.92;;;17.70;97.30;;;;;;5034296;28;20040;-70
2022/04/24 06:53:20;;;;;;;8.25;3.55;;;17.90;97.10;;;;;;5033905;28;20053;-72
2022/04/24 06:55:48;;;;;;;14.45;4.03;;;18.10;96.60;;;;;;5034145;28;20136;-71
2022/04/24 06:58:16;;;;;;;10.65;3.30;;;18.20;96.20;;;;;;5033913;28;20482;-70
2022/04/24 07:00:44;;;;;;;9.18;2.97;;;18.30;96.10;;;;;;5032670;28;20033;-71
2022/04/24 07:03:26;;;;;;;13.38;3.53;;;18.30;96.00;;;;;;5033971;28;20043;-71
2022/04/24 07:06:00;;;;;;;11.60;3.65;;;18.20;95.90;;;;;;5033732;28;20029;-71
2022/04/24 07:08:29;;;;;;;11.75;2.70;;;18.30;95.90;;;;;;5034051;28;20025;-71
2022/04/24 07:10:54;;;;;;;9.50;3.05;;;18.30;95.80;;;;;;5034081;28;20032;-71
2022/04/24 07:13:21;;;;;;;11.18;4.00;;;18.40;95.30;;;;;;5033915;28;20029;-71
2022/04/24 07:15:47;;;;;;;12.10;3.83;;;18.50;95.20;;;;;;5033626;28;20107;-72
2022/04/24 07:18:20;;;;;;;9.00;3.03;;;18.60;94.70;;;;;;5033807;28;20442;-72
2022/04/24 07:20:47;;;;;;;14.02;3.25;;;18.80;94.30;;;;;;5032543;28;20033;-72
2022/04/24 07:23:13;;;;;;;12.40;3.20;;;19.00;94.00;;;;;;5033965;28;20017;-70
2022/04/24 07:25:43;;;;;;;13.25;2.95;;;19.10;93.50;;;;;;5016015;28;20104;-70
2022/04/24 07:28:11;;;;;;;11.52;3.50;;;19.20;93.20;;;;;;5033634;28;20175;-71
2022/04/24 07:30:37;;;;;;;10.15;2.83;;;19.30;93.20;;;;;;5033465;28;20052;-70
2022/04/24 07:33:04;;;;;;;12.95;3.17;;;19.40;93.20;;;;;;5033134;28;20463;-72
2022/04/24 07:35:35;;;;;;;12.68;3.60;;;19.50;93.00;;;;;;5033103;28;20033;-70
2022/04/24 07:38:02;;;;;;;13.32;3.53;;;19.60;92.70;;;;;;5015840;28;20352;-71
2022/04/24 07:40:31;;;;;;;15.23;5.03;;;19.60;92.50;;;;;;5033245;28;20053;-70
2022/04/24 07:42:59;;;;;;;13.63;3.85;;;19.70;92.30;;;;;;5033348;28;20025;-70
2022/04/24 07:45:33;;;;;;;18.10;3.78;;;19.70;92.20;;;;;;5032502;28;20026;-71
2022/04/24 07:48:00;;;;;;;9.73;3.13;;;19.80;91.90;;;;;;5033456;28;20072;-71
2022/04/24 07:50:28;;;;;;;13.98;3.95;;;19.90;91.60;;;;;;5033852;28;20028;-71
2022/04/24 07:52:54;;;;;;;16.30;3.28;;;20.00;91.40;;;;;;5035242;28;20021;-70
2022/04/24 07:55:24;;;;;;;10.20;3.13;;;20.20;90.70;;;;;;5034857;28;20083;-71
2022/04/24 07:57:53;;;;;;;11.90;2.75;;;20.40;89.70;;;;;;5034705;28;20076;-70
2022/04/24 08:00:23;;;;;;;15.10;3.35;;;20.40;89.60;;;;;;5033490;28;20060;-75
2022/04/24 08:02:48;;;;;;;17.70;5.22;;;20.30;88.30;;;;;;5015689;28;20055;-71
2022/04/24 08:05:25;;;;;;;15.50;3.40;;;20.40;88.60;;;;;;5033074;28;20543;-73
2022/04/24 08:07:51;;;;;;;14.20;3.15;;;20.40;88.70;;;;;;5033107;28;20053;-77
2022/04/24 08:10:18;;;;;;;13.73;3.53;;;20.50;87.70;;;;;;5033353;28;20026;-71
2022/04/24 08:12:44;;;;;;;14.88;3.97;;;20.60;87.10;;;;;;5033033;28;20017;-71
2022/04/24 08:15:10;;;;;;;15.38;3.40;;;20.70;86.80;;;;;;5032946;28;20333;-71
2022/04/24 08:17:38;;;;;;;18.35;3.58;;;20.60;86.40;;;;;;5033151;28;20077;-73
2022/04/24 08:20:06;;;;;;;20.90;4.50;;;20.50;86.20;;;;;;5033037;28;20368;-71
2022/04/24 08:22:39;;;;;;;16.60;3.92;;;20.40;86.40;;;;;;5033159;28;20026;-72
2022/04/24 08:25:06;;;;;;;18.13;3.80;;;20.40;85.50;;;;;;5032648;28;20474;-71
2022/04/24 08:27:32;;;;;;;17.35;3.30;;;20.50;84.90;;;;;;5032992;28;20048;-71
2022/04/24 08:29:58;;;;;;;15.93;3.78;;;20.60;84.40;;;;;;5032907;28;20040;-72
2022/04/24 08:32:25;;;;;;;15.93;3.47;;;20.70;82.50;;;;;;5032966;28;20044;-74
2022/04/24 08:34:56;;;;;;;16.38;3.55;;;20.80;81.50;;;;;;5032915;28;20034;-73
2022/04/24 08:37:23;;;;;;;11.90;2.95;;;20.80;80.50;;;;;;5033194;28;20352;-72
2022/04/24 08:39:49;;;;;;;18.67;3.80;;;20.80;79.30;;;;;;5031792;28;20483;-74
2022/04/24 08:42:18;;;;;;;13.25;2.97;;;20.80;78.40;;;;;;5032727;28;20067;-72
2022/04/24 08:44:51;;;;;;;15.30;2.60;;;20.80;77.10;;;;;;5032853;28;20044;-76
2022/04/24 08:47:19;;;;;;;12.35;2.53;;;20.70;74.80;;;;;;5033085;28;20026;-73
2022/04/24 08:49:47;;;;;;;12.90;2.80;;;20.70;72.70;;;;;;5015499;28;20033;-74
2022/04/24 08:52:14;;;;;;;7.28;2.13;;;20.60;73.50;;;;;;5032728;28;20029;-72
2022/04/24 08:54:41;;;;;;;11.73;2.70;;;20.60;69.90;;;;;;5032383;28;20032;-71
2022/04/24 08:57:13;;;;;;;11.20;2.45;;;20.60;69.10;;;;;;5034530;28;20026;-73
2022/04/24 08:59:39;;;;;;;9.50;2.13;;;20.60;65.40;;;;;;5036435;28;20032;-72
2022/04/24 09:02:06;;;;;;;8.65;1.52;;;20.70;66.30;;;;;;5036762;28;20068;-72
2022/04/24 09:04:36;;;;;;;11.95;2.00;;;20.70;63.70;;;;;;5036543;28;20440;-70
2022/04/24 09:07:05;;;;;;;8.98;1.77;;;20.90;61.60;;;;;;5036189;28;20514;-72
2022/04/24 09:09:44;;;;;;;9.43;1.75;;;21.00;59.50;;;;;;5036228;28;20033;-73
2022/04/24 09:12:17;;;;;;;10.95;3.00;;;21.10;58.20;;;;;;5034871;28;20029;-71
2022/04/24 09:14:56;;;;;;;6.45;1.75;;;21.30;55.70;;;;;;5036094;28;20080;-74
2022/04/24 09:17:26;;;;;;;10.20;2.38;;;21.40;56.30;;;;;;5036553;28;20498;-77
2022/04/24 09:19:53;;;;;;;7.60;1.98;;;21.50;55.10;;;;;;5036713;28;20034;-75
2022/04/24 09:22:19;;;;;;;11.50;2.10;;;21.60;55.30;;;;;;5036344;28;20025;-78
2022/04/24 09:25:01;;;;;;;7.32;1.92;;;21.70;54.20;;;;;;5036035;28;20094;-70
2022/04/24 09:27:30;;;;;;;9.65;2.35;;;21.90;53.80;;;;;;5036301;28;20075;-76
2022/04/24 09:30:00;;;;;;;10.02;2.03;;;22.00;52.70;;;;;;5035907;28;20087;-74
2022/04/24 09:32:27;;;;;;;10.05;2.10;;;21.90;52.50;;;;;;5035976;28;20065;-74
2022/04/24 09:34:53;;;;;;;7.28;1.45;;;21.90;51.70;;;;;;5034584;28;20044;-72
2022/04/24 09:37:20;;;;;;;10.10;1.77;;;21.80;51.80;;;;;;5035741;28;20022;-71
2022/04/24 09:39:48;;;;;;;8.45;1.65;;;21.80;51.30;;;;;;5035612;28;20466;-76
2022/04/24 09:42:18;;;;;;;11.20;1.77;;;21.80;50.10;;;;;;5035533;28;20025;-73
2022/04/24 09:44:51;;;;;;;4.93;1.00;;;21.70;49.40;;;;;;5035698;28;20034;-71
2022/04/24 09:47:19;;;;;;;6.82;1.27;;;21.70;47.20;;;;;;5034144;28;20033;-74
2022/04/24 09:49:46;;;;;;;9.00;1.60;;;21.50;46.60;;;;;;5035481;28;20041;-70
2022/04/24 09:52:15;;;;;;;5.57;1.00;;;21.40;45.00;;;;;;5035005;28;20026;-71
2022/04/24 09:54:46;;;;;;;6.75;1.10;;;21.20;44.80;;;;;;5035114;28;20036;-74
2022/04/24 09:57:14;;;;;;;6.82;1.30;;;21.20;45.30;;;;;;5035488;28;20076;-69
2022/04/24 09:59:53;;;;;;;5.50;1.45;;;21.20;44.60;;;;;;5035227;28;20039;-73
2022/04/24 10:02:20;;;;;;;6.35;1.05;;;21.20;43.90;;;;;;5035152;28;20022;-72
2022/04/24 10:04:46;;;;;;;6.20;1.10;;;21.20;43.70;;;;;;5033966;28;20485;-72
2022/04/24 10:07:14;;;;;;;5.25;1.10;;;21.30;44.30;;;;;;5034981;28;20017;-74
2022/04/24 10:09:46;;;;;;;8.80;1.60;;;21.30;43.70;;;;;;5034368;28;20033;-74
2022/04/24 10:12:19;;;;;;;4.20;1.27;;;21.30;44.20;;;;;;5035346;28;20084;-71
2022/04/24 10:14:58;;;;;;;8.65;1.20;;;21.30;43.80;;;;;;5033350;28;20136;-72
2022/04/24 10:17:51;;;;;;;3.47;0.95;;;21.30;43.70;;;;;;5034862;28;20176;-73
2022/04/24 10:20:47;;;;;;;6.18;1.40;;;21.30;43.80;;;;;;5035099;28;20104;-70
2022/04/24 10:23:14;;;;;;;10.50;1.70;;;21.30;42.50;;;;;;5033601;28;20038;-72
2022/04/24 10:25:42;;;;;;;4.85;1.35;;;21.40;42.80;;;;;;5034836;28;20026;-76
2022/04/24 10:28:19;;;;;;;5.03;1.27;;;21.40;42.40;;;;;;5033676;28;20026;-73
2022/04/24 10:31:00;;;;;;;7.10;1.00;;;21.40;41.40;;;;;;5034963;28;20144;-71
2022/04/24 10:33:28;;;;;;;6.13;1.52;;;21.30;40.20;;;;;;5035483;28;20462;-71
2022/04/24 10:36:05;;;;;;;6.18;1.27;;;21.30;41.70;;;;;;5036725;28;20451;-71
2022/04/24 10:38:44;;;;;;;8.48;1.80;;;21.30;41.90;;;;;;5035220;28;20029;-72
2022/04/24 10:41:30;;;;;;;8.23;1.95;;;21.30;41.50;;;;;;5033606;28;20052;-70
2022/04/24 10:44:16;;;;;;;7.85;1.60;;;21.30;41.40;;;;;;5034423;28;20029;-74
2022/04/24 10:46:43;;;;;;;4.95;1.33;;;21.20;41.40;;;;;;5034269;28;20022;-73
2022/04/24 10:49:10;;;;;;;8.82;1.80;;;21.30;41.80;;;;;;5034320;28;20025;-73
2022/04/24 10:51:37;;;;;;;6.00;1.40;;;21.30;41.80;;;;;;5034200;28;20037;-72
2022/04/24 10:54:08;;;;;;;6.28;1.83;;;21.30;41.80;;;;;;5033889;28;20071;-73
2022/04/24 10:56:36;;;;;;;9.13;1.83;;;21.30;42.30;;;;;;5016742;28;20100;-71
2022/04/24 10:59:13;;;;;;;7.03;1.50;;;21.30;42.60;;;;;;5034157;28;20061;-71
2022/04/24 11:01:43;;;;;;;7.93;1.75;;;21.30;43.00;;;;;;5034414;28;20374;-71
2022/04/24 11:04:11;;;;;;;9.15;2.33;;;21.40;43.60;;;;;;5032489;28;20025;-73
2022/04/24 11:06:37;;;;;;;14.55;2.50;;;21.50;43.70;;;;;;5016218;28;20025;-73
2022/04/24 11:09:07;;;;;;;8.65;1.88;;;21.60;43.90;;;;;;5033952;28;20037;-71
2022/04/24 11:11:34;;;;;;;8.52;2.30;;;21.60;43.90;;;;;;5033865;28;20033;-77
2022/04/24 11:14:02;;;;;;;13.55;2.47;;;21.60;44.60;;;;;;5016282;28;20045;-73
2022/04/24 11:16:28;;;;;;;10.75;1.60;;;21.70;44.80;;;;;;5033643;28;20070;-74
2022/04/24 11:18:54;;;;;;;8.50;1.73;;;21.80;44.20;;;;;;5034058;28;20037;-77
2022/04/24 11:21:21;;;;;;;7.35;1.70;;;21.80;43.60;;;;;;5014851;28;20057;-70
2022/04/24 11:23:47;;;;;;;8.35;1.60;;;21.80;43.20;;;;;;5033869;28;20489;-76
2022/04/24 11:26:14;;;;;;;8.88;2.03;;;21.80;43.40;;;;;;5033974;28;20026;-73
2022/04/24 11:28:49;;;;;;;7.43;1.65;;;21.80;42.90;;;;;;5033871;28;20025;-72
2022/04/24 11:31:20;;;;;;;6.78;1.60;;;21.80;42.80;;;;;;5034097;28;20033;-70
2022/04/24 11:34:01;;;;;;;8.30;1.80;;;21.90;42.20;;;;;;5033608;28;20037;-74
2022/04/24 11:36:32;;;;;;;7.00;1.60;;;21.90;41.60;;;;;;5034027;28;20025;-72
2022/04/24 11:39:01;;;;;;;4.28;1.40;;;22.00;41.20;;;;;;5033903;28;20030;-73
2022/04/24 11:41:32;;;;;;;5.47;1.10;;;22.10;40.40;;;;;;5033702;28;20017;-72
2022/04/24 11:44:03;;;;;;;4.18;1.10;;;22.10;38.80;;;;;;5033379;28;20056;-73
2022/04/24 11:52:08;;;;;;;4.38;1.73;;;22.20;38.30;;;;;;5033820;28;20398;-72
2022/04/24 11:54:34;;;;;;;7.75;1.88;;;22.30;37.70;;;;;;5033099;28;20417;-72
2022/04/24 11:57:00;;;;;;;4.57;1.40;;;22.40;37.50;;;;;;5033370;28;20104;-71
2022/04/24 11:59:27;;;;;;;4.55;1.20;;;22.40;37.60;;;;;;5033554;28;20120;-76
2022/04/24 12:01:58;;;;;;;4.68;1.10;;;22.30;37.30;;;;;;5015875;28;20025;-76
2022/04/24 12:04:31;;;;;;;6.30;1.38;;;22.30;37.60;;;;;;5033704;28;20013;-75
2022/04/24 12:07:08;;;;;;;4.22;1.15;;;22.30;37.70;;;;;;5034180;28;20199;-74
2022/04/24 12:09:37;;;;;;;6.97;1.30;;;22.30;37.00;;;;;;5033466;28;20022;-79
2022/04/24 12:12:08;;;;;;;6.28;1.30;;;22.40;37.50;;;;;;5033224;28;20060;-72
2022/04/24 12:14:35;;;;;;;2.90;0.80;;;22.50;37.00;;;;;;5032834;28;20031;-73
2022/04/24 12:17:06;;;;;;;3.88;1.02;;;22.50;36.90;;;;;;5033372;28;20037;-74
2022/04/24 12:19:33;;;;;;;5.75;1.05;;;22.50;36.50;;;;;;5033416;28;20026;-76
2022/04/24 12:22:11;;;;;;;3.85;1.35;;;22.50;37.10;;;;;;5033093;28;20034;-75
2022/04/24 12:24:44;;;;;;;3.80;1.17;;;22.60;37.70;;;;;;5031899;28;20120;-72
2022/04/24 12:27:16;;;;;;;5.60;1.10;;;22.60;36.60;;;;;;5033407;28;20147;-73
2022/04/24 12:29:49;;;;;;;4.70;0.75;;;22.50;36.70;;;;;;5015516;28;20478;-76
2022/04/24 12:32:26;;;;;;;6.67;1.27;;;22.60;37.10;;;;;;5035396;28;20026;-75
2022/04/24 12:34:52;;;;;;;3.60;1.08;;;22.70;36.70;;;;;;5036855;28;20291;-73
2022/04/24 12:37:29;;;;;;;3.40;0.93;;;22.80;36.60;;;;;;5037593;28;20040;-74
2022/04/24 12:39:54;;;;;;;4.05;1.30;;;22.80;36.10;;;;;;5037095;28;20028;-75
2022/04/24 12:42:23;;;;;;;7.25;1.42;;;22.80;36.60;;;;;;5037054;28;20025;-79
2022/04/24 12:44:50;;;;;;;4.00;0.80;;;22.80;36.20;;;;;;5035469;28;20053;-73
2022/04/24 12:47:16;;;;;;;5.55;1.50;;;22.90;36.20;;;;;;5036956;28;20083;-76
2022/04/24 12:49:44;;;;;;;5.80;1.10;;;22.80;36.40;;;;;;5019326;28;20104;-79
2022/04/24 12:52:11;;;;;;;6.22;1.30;;;22.80;36.40;;;;;;5002980;28;20033;-76